createdAt,value
2023-04-23T00:01:30.011Z,18.52
2023-04-23T00:04:54.287Z,19.15
2023-04-23T00:08:18.870Z,21.98
2023-04-23T00:11:42.040Z,19.65
2023-04-23T00:15:05.373Z,17.90
2023-04-23T00:18:27.026Z,18.75
2023-04-23T00:21:48.955Z,18.15
2023-04-23T00:25:11.581Z,18.65
2023-04-23T00:28:34.381Z,17.98
2023-04-23T00:31:56.046Z,16.75
2023-04-23T00:35:20.734Z,17.60
2023-04-23T00:38:42.677Z,16.65
2023-04-23T00:42:10.573Z,16.58
2023-04-23T00:45:33.869Z,16.95
2023-04-23T00:48:55.637Z,17.20
2023-04-23T00:52:17.054Z,19.88
2023-04-23T00:55:38.670Z,19.05
2023-04-23T00:59:02.999Z,18.85
2023-04-23T01:02:28.335Z,22.02
2023-04-23T01:05:50.321Z,19.27
2023-04-23T01:09:12.268Z,20.70
2023-04-23T01:12:35.396Z,18.83
2023-04-23T01:15:57.523Z,18.80
2023-04-23T01:19:20.826Z,18.83
2023-04-23T01:22:43.768Z,18.00
2023-04-23T01:26:05.051Z,19.00
2023-04-23T01:29:27.374Z,18.05
2023-04-23T01:32:50.248Z,20.30
2023-04-23T01:36:12.549Z,17.50
2023-04-23T01:39:37.060Z,18.08
2023-04-23T01:42:59.232Z,18.80
2023-04-23T01:46:22.154Z,20.23
2023-04-23T01:49:43.664Z,19.88
2023-04-23T01:53:04.949Z,18.08
2023-04-23T01:56:30.632Z,23.63
2023-04-23T01:59:52.097Z,21.08
2023-04-23T02:03:13.765Z,20.35
2023-04-23T02:06:35.261Z,18.83
2023-04-23T02:09:56.422Z,18.33
2023-04-23T02:13:19.428Z,17.13
2023-04-23T02:16:40.772Z,17.75
2023-04-23T02:20:02.385Z,17.60
2023-04-23T02:23:24.624Z,16.73
2023-04-23T02:26:45.964Z,16.77
2023-04-23T02:30:11.453Z,18.77
2023-04-23T02:33:33.225Z,19.00
2023-04-23T02:36:54.523Z,19.65
2023-04-23T02:40:15.884Z,17.67
2023-04-23T02:43:37.695Z,16.92
2023-04-23T02:47:00.856Z,20.73
2023-04-23T02:50:22.675Z,20.23
2023-04-23T02:53:44.007Z,21.92
2023-04-23T02:57:06.550Z,17.42
2023-04-23T03:00:29.491Z,19.77
2023-04-23T03:03:52.825Z,21.23
2023-04-23T03:07:17.351Z,17.08
2023-04-23T03:10:38.852Z,19.33
2023-04-23T03:14:00.455Z,18.17
2023-04-23T03:17:21.694Z,18.58
2023-04-23T03:20:44.789Z,19.95
2023-04-23T03:24:06.827Z,17.23
2023-04-23T03:27:28.457Z,17.23
2023-04-23T03:30:50.239Z,18.92
2023-04-23T03:34:12.099Z,22.50
2023-04-23T03:37:35.398Z,18.10
2023-04-23T03:40:58.229Z,18.35
2023-04-23T03:44:20.187Z,17.95
2023-04-23T03:47:42.013Z,19.67
2023-04-23T03:51:04.179Z,15.85
2023-04-23T03:54:32.928Z,18.85
2023-04-23T03:58:14.737Z,19.48
2023-04-23T04:01:38.934Z,17.13
2023-04-23T04:05:01.540Z,18.85
2023-04-23T04:08:23.057Z,15.43
2023-04-23T04:11:45.571Z,20.17
2023-04-23T04:15:08.348Z,18.80
2023-04-23T04:18:29.530Z,21.77
2023-04-23T04:21:51.366Z,20.05
2023-04-23T04:25:13.443Z,17.05
2023-04-23T04:28:37.505Z,21.52
2023-04-23T04:31:59.778Z,20.55
2023-04-23T04:35:21.584Z,21.52
2023-04-23T04:38:43.841Z,16.27
2023-04-23T04:42:06.947Z,19.27
2023-04-23T04:45:29.761Z,17.33
2023-04-23T04:48:51.500Z,20.38
2023-04-23T04:52:13.127Z,19.92
2023-04-23T04:55:34.386Z,20.30
2023-04-23T04:58:56.010Z,18.70
2023-04-23T05:02:20.135Z,19.35
2023-04-23T05:05:42.084Z,18.95
2023-04-23T05:09:03.730Z,19.05
2023-04-23T05:12:25.160Z,19.15
2023-04-23T05:15:47.049Z,16.80
2023-04-23T05:19:09.838Z,37.10
2023-04-23T05:22:31.630Z,57.47
2023-04-23T05:25:55.937Z,32.72
2023-04-23T05:29:19.351Z,19.83
2023-04-23T05:32:41.539Z,19.67
2023-04-23T05:36:04.526Z,17.25
2023-04-23T05:39:26.164Z,21.48
2023-04-23T05:42:47.993Z,19.42
2023-04-23T05:46:09.281Z,18.90
2023-04-23T05:49:31.006Z,20.10
2023-04-23T05:52:54.112Z,17.60
2023-04-23T05:56:15.683Z,20.13
2023-04-23T05:59:37.276Z,18.58
2023-04-23T06:02:59.223Z,19.60
2023-04-23T06:06:20.746Z,17.65
2023-04-23T06:09:43.817Z,16.00
2023-04-23T06:13:05.313Z,16.25
2023-04-23T06:16:26.873Z,15.75
2023-04-23T06:19:48.382Z,17.35
2023-04-23T06:23:09.831Z,13.60
2023-04-23T06:26:33.316Z,13.48
2023-04-23T06:30:00.124Z,13.02
2023-04-23T06:33:21.235Z,12.10
2023-04-23T06:36:43.553Z,11.43
2023-04-23T06:40:06.650Z,10.63
2023-04-23T06:43:29.665Z,11.85
2023-04-23T06:47:17.752Z,9.43
2023-04-23T06:50:39.673Z,10.00
2023-04-23T06:54:00.978Z,10.40
2023-04-23T06:57:22.936Z,10.65
2023-04-23T07:00:45.957Z,10.68
2023-04-23T07:04:08.339Z,9.55
2023-04-23T07:07:29.604Z,10.30
2023-04-23T07:10:51.677Z,9.98
2023-04-23T07:14:13.009Z,11.57
2023-04-23T07:17:36.113Z,11.45
2023-04-23T07:20:58.050Z,12.00
2023-04-23T07:24:19.703Z,12.02
2023-04-23T07:27:41.235Z,11.88
2023-04-23T07:31:03.521Z,13.80
2023-04-23T07:34:26.464Z,13.93
2023-04-23T07:37:48.031Z,12.80
2023-04-23T07:41:09.508Z,10.88
2023-04-23T07:44:31.149Z,12.80
2023-04-23T07:47:53.054Z,12.00
2023-04-23T07:51:16.078Z,12.55
2023-04-23T07:54:37.544Z,14.27
2023-04-23T07:57:58.843Z,10.82
2023-04-23T08:01:20.094Z,12.73
2023-04-23T08:04:41.717Z,13.48
2023-04-23T08:08:04.894Z,14.02
2023-04-23T08:11:26.616Z,12.90
2023-04-23T08:14:47.935Z,11.02
2023-04-23T08:18:13.263Z,10.77
2023-04-23T08:21:35.053Z,9.45
2023-04-23T08:24:58.160Z,10.05
2023-04-23T08:28:19.707Z,8.77
2023-04-23T08:31:41.527Z,9.35
2023-04-23T08:35:03.130Z,13.50
2023-04-23T08:38:24.505Z,11.30
2023-04-23T08:41:55.195Z,10.15
2023-04-23T08:45:16.859Z,8.65
2023-04-23T08:48:40.962Z,9.43
2023-04-23T08:52:14.361Z,10.68
2023-04-23T08:55:37.098Z,8.40
2023-04-23T08:59:00.424Z,11.40
2023-04-23T09:02:22.871Z,11.05
2023-04-23T09:05:45.508Z,7.30
2023-04-23T09:09:08.482Z,8.30
2023-04-23T09:12:31.923Z,8.50
2023-04-23T09:15:55.058Z,8.63
2023-04-23T09:19:17.713Z,8.57
2023-04-23T09:22:40.543Z,9.07
2023-04-23T09:26:06.809Z,7.20
2023-04-23T09:29:28.511Z,8.20
2023-04-23T09:32:53.105Z,9.20
2023-04-23T09:36:16.510Z,8.32
2023-04-23T09:39:38.280Z,9.00
2023-04-23T09:42:59.836Z,8.20
2023-04-23T09:46:34.743Z,8.20
2023-04-23T09:49:57.479Z,9.68
2023-04-23T09:53:20.867Z,10.38
2023-04-23T09:56:42.987Z,9.88
2023-04-23T10:00:15.591Z,8.32
2023-04-23T10:03:39.228Z,8.60
2023-04-23T10:07:19.055Z,8.65
2023-04-23T10:14:09.105Z,8.75
2023-04-23T10:17:30.883Z,8.48
2023-04-23T10:20:54.460Z,11.07
2023-04-23T10:24:21.126Z,9.18
2023-04-23T10:27:53.845Z,9.85
2023-04-23T10:31:16.801Z,11.18
2023-04-23T10:34:40.722Z,7.93
2023-04-23T10:38:02.837Z,4.95
2023-04-23T10:41:30.812Z,4.22
2023-04-23T10:45:04.742Z,4.95
2023-04-23T10:48:28.971Z,3.95
2023-04-23T10:55:18.521Z,4.35
2023-04-23T10:58:51.830Z,4.32
2023-04-23T11:02:14.284Z,5.22
2023-04-23T11:05:36.923Z,4.95
2023-04-23T11:08:58.420Z,3.08
2023-04-23T11:12:33.574Z,3.95
2023-04-23T11:16:18.697Z,3.60
2023-04-23T11:19:41.536Z,2.72
2023-04-23T11:23:03.370Z,3.55
2023-04-23T11:26:31.613Z,2.95
2023-04-23T11:29:54.359Z,2.90
2023-04-23T11:33:18.312Z,3.90
2023-04-23T11:36:40.661Z,3.83
2023-04-23T11:40:08.212Z,4.05
2023-04-23T11:43:30.329Z,3.22
2023-04-23T11:46:52.069Z,3.05
2023-04-23T11:50:20.238Z,4.10
2023-04-23T11:53:47.309Z,4.05
2023-04-23T11:57:08.478Z,4.00
2023-04-23T12:00:30.304Z,4.53
2023-04-23T12:03:51.471Z,3.00
2023-04-23T12:07:25.733Z,3.70
2023-04-23T12:10:50.643Z,4.22
2023-04-23T12:14:14.820Z,4.35
2023-04-23T12:17:36.533Z,3.10
2023-04-23T12:21:05.905Z,1.90
2023-04-23T12:24:30.599Z,1.38
2023-04-23T12:27:52.067Z,1.63
2023-04-23T12:31:21.707Z,3.28
2023-04-23T12:34:54.016Z,2.08
2023-04-23T12:38:33.550Z,2.75
2023-04-23T12:42:00.074Z,2.60
2023-04-23T12:45:21.667Z,2.88
2023-04-23T12:48:43.109Z,2.03
2023-04-23T12:52:06.295Z,2.92
2023-04-23T12:55:27.750Z,1.40
2023-04-23T12:58:50.417Z,1.67
2023-04-23T13:02:12.171Z,1.20
2023-04-23T13:05:33.469Z,1.40
2023-04-23T13:08:55.509Z,2.10
2023-04-23T13:12:17.037Z,2.70
2023-04-23T13:15:39.704Z,1.75
2023-04-23T13:19:01.903Z,1.42
2023-04-23T13:22:28.248Z,2.60
2023-04-23T13:25:49.876Z,2.22
2023-04-23T13:29:11.700Z,1.80
2023-04-23T13:32:34.804Z,1.92
2023-04-23T13:35:56.627Z,1.52
2023-04-23T13:39:18.412Z,3.70
2023-04-23T13:42:39.860Z,1.45
2023-04-23T13:46:01.918Z,1.95
2023-04-23T13:49:25.011Z,1.30
2023-04-23T13:52:46.489Z,1.92
2023-04-23T13:56:08.357Z,1.50
2023-04-23T13:59:29.813Z,3.03
2023-04-23T14:02:51.604Z,3.13
2023-04-23T14:06:14.389Z,1.80
2023-04-23T14:09:36.055Z,1.80
2023-04-23T14:12:57.980Z,3.10
2023-04-23T14:16:19.797Z,1.63
2023-04-23T14:19:41.800Z,2.55
2023-04-23T14:23:32.951Z,3.17
2023-04-23T14:26:54.652Z,2.05
2023-04-23T14:30:17.845Z,4.05
2023-04-23T14:33:39.181Z,2.45
2023-04-23T14:37:00.897Z,2.10
2023-04-23T14:40:23.510Z,4.15
2023-04-23T14:43:45.143Z,2.58
2023-04-23T14:47:08.107Z,2.35
2023-04-23T14:50:29.927Z,2.17
2023-04-23T14:53:53.972Z,2.63
2023-04-23T14:57:18.258Z,1.98
2023-04-23T15:00:40.061Z,1.90
2023-04-23T15:04:01.891Z,2.33
2023-04-23T15:07:23.856Z,2.28
2023-04-23T15:10:45.553Z,2.30
2023-04-23T15:14:19.152Z,2.10
2023-04-23T15:17:40.833Z,2.20
2023-04-23T15:21:03.727Z,5.43
2023-04-23T15:24:25.210Z,2.60
2023-04-23T15:27:47.030Z,2.47
2023-04-23T15:31:09.846Z,2.85
2023-04-23T15:34:31.289Z,3.92
2023-04-23T15:37:53.045Z,6.13
2023-04-23T15:41:15.311Z,4.22
2023-04-23T15:44:36.913Z,2.22
2023-04-23T15:47:59.760Z,2.60
2023-04-23T15:51:21.471Z,2.40
2023-04-23T15:54:43.345Z,2.33
2023-04-23T15:58:04.777Z,2.67
2023-04-23T16:01:27.416Z,2.25
2023-04-23T16:04:51.504Z,2.28
2023-04-23T16:08:14.226Z,2.47
2023-04-23T16:11:36.202Z,3.70
2023-04-23T16:14:57.877Z,2.65
2023-04-23T16:18:19.517Z,10.63
2023-04-23T16:21:42.568Z,4.85
2023-04-23T16:25:03.816Z,4.30
2023-04-23T16:28:25.437Z,2.10
2023-04-23T16:31:46.594Z,2.42
2023-04-23T16:35:08.733Z,2.85
2023-04-23T16:38:31.713Z,3.17
2023-04-23T16:41:53.731Z,5.68
2023-04-23T16:45:15.623Z,6.50
2023-04-23T16:48:37.188Z,2.53
2023-04-23T16:51:58.483Z,2.83
2023-04-23T16:55:21.601Z,3.78
2023-04-23T16:58:43.020Z,4.28
2023-04-23T17:02:04.805Z,3.25
2023-04-23T17:05:27.013Z,2.75
2023-04-23T17:08:48.904Z,3.42
2023-04-23T17:12:12.133Z,4.30
2023-04-23T17:15:33.939Z,4.07
2023-04-23T17:18:55.954Z,3.85
2023-04-23T17:22:18.049Z,4.45
2023-04-23T17:25:39.562Z,3.65
2023-04-23T17:29:02.081Z,5.65
2023-04-23T17:32:23.706Z,3.55
2023-04-23T17:35:46.742Z,3.97
2023-04-23T17:39:08.512Z,4.97
2023-04-23T17:42:29.932Z,5.65
2023-04-23T17:45:52.667Z,4.65
2023-04-23T17:49:14.281Z,6.00
2023-04-23T17:52:36.089Z,4.45
2023-04-23T17:56:00.384Z,7.30
2023-04-23T17:59:22.053Z,7.40
2023-04-23T18:02:45.982Z,5.95
2023-04-23T18:06:09.209Z,4.47
2023-04-23T18:09:31.027Z,6.45
2023-04-23T18:12:52.347Z,4.85
2023-04-23T18:16:14.102Z,6.20
2023-04-23T18:19:37.269Z,6.15
2023-04-23T18:22:58.793Z,5.88
2023-04-23T18:26:20.057Z,6.78
2023-04-23T18:29:42.817Z,9.00
2023-04-23T18:33:12.009Z,6.35
2023-04-23T18:36:38.243Z,8.68
2023-04-23T18:40:00.116Z,10.75
2023-04-23T18:43:21.498Z,8.75
2023-04-23T18:46:43.454Z,9.05
2023-04-23T18:50:11.695Z,7.50
2023-04-23T18:53:37.133Z,6.28
2023-04-23T18:56:58.607Z,8.32
2023-04-23T19:00:20.132Z,6.82
2023-04-23T19:03:41.828Z,15.75
2023-04-23T19:07:04.354Z,10.75
2023-04-23T19:10:27.283Z,10.23
2023-04-23T19:13:49.333Z,8.32
2023-04-23T19:17:10.532Z,9.40
2023-04-23T19:20:32.181Z,8.63
2023-04-23T19:23:54.146Z,7.88
2023-04-23T19:27:16.972Z,7.50
2023-04-23T19:30:38.881Z,10.02
2023-04-23T19:34:00.458Z,9.70
2023-04-23T19:37:22.252Z,12.00
2023-04-23T19:40:44.413Z,9.52
2023-04-23T19:44:07.063Z,9.23
2023-04-23T19:47:28.356Z,12.88
2023-04-23T19:50:50.399Z,13.38
2023-04-23T19:54:11.892Z,9.27
2023-04-23T19:57:33.117Z,9.65
2023-04-23T20:00:56.904Z,16.10
2023-04-23T20:04:18.636Z,12.07
2023-04-23T20:07:40.408Z,9.68
2023-04-23T20:11:02.081Z,8.57
2023-04-23T20:14:23.215Z,8.75
2023-04-23T20:17:46.164Z,9.32
2023-04-23T20:21:09.229Z,8.30
2023-04-23T20:24:31.032Z,9.73
2023-04-23T20:27:52.565Z,10.93
2023-04-23T20:31:14.135Z,11.73
2023-04-23T20:34:37.154Z,10.63
2023-04-23T20:37:58.469Z,10.23
2023-04-23T20:41:20.291Z,10.40
2023-04-23T20:44:45.681Z,9.35
2023-04-23T20:48:08.181Z,8.82
2023-04-23T20:51:34.232Z,10.10
2023-04-23T20:54:56.108Z,10.73
2023-04-23T20:58:18.054Z,8.40
2023-04-23T21:01:39.296Z,11.95
2023-04-23T21:05:00.884Z,12.60
2023-04-23T21:08:23.701Z,11.30
2023-04-23T21:11:45.459Z,10.95
2023-04-23T21:15:09.401Z,10.10
2023-04-23T21:18:31.321Z,8.05
2023-04-23T21:21:52.698Z,8.35
2023-04-23T21:25:15.534Z,9.27
2023-04-23T21:28:37.681Z,6.72
2023-04-23T21:31:59.003Z,6.60
2023-04-23T21:35:20.293Z,7.90
2023-04-23T21:38:42.026Z,6.57
2023-04-23T21:42:04.972Z,10.23
2023-04-23T21:45:26.410Z,7.85
2023-04-23T21:48:50.383Z,5.80
2023-04-23T21:52:11.756Z,7.45
2023-04-23T21:55:32.931Z,6.68
2023-04-23T21:58:55.991Z,6.68
2023-04-23T22:02:17.678Z,8.40
2023-04-23T22:05:39.933Z,7.78
2023-04-23T22:09:02.054Z,8.93
2023-04-23T22:12:23.915Z,8.75
2023-04-23T22:15:48.754Z,8.00
2023-04-23T22:19:10.318Z,8.43
2023-04-23T22:22:32.076Z,8.90
2023-04-23T22:25:54.347Z,7.45
2023-04-23T22:29:16.085Z,7.90
2023-04-23T22:32:39.523Z,7.20
2023-04-23T22:36:01.231Z,7.00
2023-04-23T22:39:23.095Z,8.70
2023-04-23T22:42:44.137Z,14.07
2023-04-23T22:46:05.448Z,9.60
2023-04-23T22:49:28.379Z,8.95
2023-04-23T22:52:50.384Z,8.40
2023-04-23T22:56:11.803Z,8.88
2023-04-23T22:59:33.349Z,8.48
2023-04-23T23:02:54.665Z,8.70
2023-04-23T23:06:17.994Z,9.48
2023-04-23T23:09:39.562Z,10.30
2023-04-23T23:13:01.426Z,8.45
2023-04-23T23:16:22.987Z,7.03
2023-04-23T23:19:44.713Z,6.18
2023-04-23T23:23:08.142Z,7.82
2023-04-23T23:26:30.095Z,6.28
2023-04-23T23:29:51.386Z,8.80
2023-04-23T23:33:12.492Z,8.05
2023-04-23T23:36:34.312Z,8.57
2023-04-23T23:39:57.155Z,6.85
2023-04-23T23:43:18.808Z,8.63
2023-04-23T23:46:40.670Z,7.80
2023-04-23T23:50:02.083Z,8.88
2023-04-23T23:53:24.105Z,11.73
2023-04-23T23:56:47.142Z,9.48
